Weber City, Virginia
Current Conditions -  °F | °C
As of 5:53 PM on Friday 19 Dec 2014 (Local Time) from KTRI Reporting Station
Broken Clouds Broken Clouds  
Wind Chill: 39°   Ceiling: 22000
Heat Index: 39°   Visibility: 10mi
Dew Point: 26°   Wind: 3mph
Humidity: 60%   Direction: 360°N
Pressure: 30.17"   Gusts: NA
Location:  36.62°N, 82.56°W
Report Text: KTRI 192253Z 36003KT 10SM BKN220 04/M03 A3017 RMK AO2 SLP215 T00391033
Loading
Personal Weather Stations






























Interactive Weather Map New forecast layout! Learn more

10-Day Weather Forecast

Advertisements
Track Severe Weather on mobile